Kezdőlap
METAR-TAF:

METAR-TAF

Repülőterek :

Kunming, Kína

földrajzi szélesség: 25-01N, földrajzi hosszúság: 102-41E, magasság: 1892 m

Jelenlegi meteorológiai megfigyelések

A jelentés 42 perccel ezelõtt készült, 09:00 UTC
Dél-délnyugati szél 8 kt, déli és nyugat-délnyugati között változik
Hőmérséklet 20°C
Páratartalom 68%
Légköri nyomás 1019 hPa
Látótávolság 10 km, vagy több
Szórványos felhőzet 2300 lábon

METAR: ZPPP 280900Z 21004MPS 180V240 9999 SCT023 20/14 Q1019 NOSIG

Idő: 17:42 (09:42 UTC)

Előrejelzés

A jelentés 8 órával és 35 perccel ezelõtt készült, 01:07 UTC
Az előrejelzés 28-én 06 óra UTC és 29-én 06 óra UTC között érvényes
Délnyugati szél 12 kt
Látótávolság 10 km, vagy több
Szórványos felhőzet 2300 lábon
Szakadozott felhőzet 4000 lábon

TAF: ZPPP 280107Z 2806/2906 22006MPS 9999 SCT023 BKN040 TX22/2808Z TN13/2823Z

Meteorológiai megfigyelések és előrejelzések több, mint 4000 repülőtéren (METAR és TAF jelentéseket).

A térképen piros és sárga pontok jelzik az elérhető meteorológiai állomásokat.

Mozgassa az egeret a pont fölött, hogy megjelenjen az állomás neve.

Azután kattintson az időjárási megfigyelések és előrejelzések megtekintéséhez.

A térkép megváltoztatása: kattintson a fekete keresztel jelölt zöld gombra ráközelítéshez, a vonallal jelölt zöld gombra távolításhoz, vagy a zöld nyilakra a szomszédos térképek eléréséhez.


METAR-TAF: